Time;durP1;ratioP1;P1;durP2;ratioP2;P2;SDS_P1;SDS_P2;PMS_P1;PMS_P2;Temp;Humidity;BMP_temperature;BMP_pressure;BME280_temperature;BME280_humidity;BME280_pressure;Samples;Min_cycle;Max_cycle;Signal;HPM_P1;HPM_P2
2021/12/12 00:01:13;;;;;;;20.83;9.63;;;5.00;99.90;;;;;;5037253;28;20559;-76
2021/12/12 00:03:46;;;;;;;25.42;9.40;;;5.00;99.90;;;;;;5047143;28;20025;-77
2021/12/12 00:06:20;;;;;;;23.67;9.80;;;5.00;99.90;;;;;;5044154;28;20030;-78
2021/12/12 00:08:49;;;;;;;24.80;9.55;;;5.00;99.90;;;;;;5048406;28;20110;-77
2021/12/12 00:11:19;;;;;;;23.40;8.90;;;5.00;99.90;;;;;;5044472;28;20044;-77
2021/12/12 00:13:49;;;;;;;23.83;8.82;;;5.00;99.90;;;;;;5031814;28;20464;-77
2021/12/12 00:16:15;;;;;;;30.38;9.45;;;5.10;99.90;;;;;;5041630;28;20406;-77
2021/12/12 00:18:42;;;;;;;26.65;9.40;;;5.00;99.90;;;;;;5047087;28;20667;-77
2021/12/12 00:21:09;;;;;;;23.50;7.30;;;5.00;99.90;;;;;;5050945;28;20036;-77
2021/12/12 00:23:35;;;;;;;26.42;8.15;;;5.00;99.90;;;;;;5050535;28;20021;-76
2021/12/12 00:26:02;;;;;;;21.33;8.90;;;5.00;99.90;;;;;;5043681;28;20056;-77
2021/12/12 00:28:28;;;;;;;21.92;7.70;;;5.00;99.90;;;;;;5046468;28;20026;-77
2021/12/12 00:30:59;;;;;;;24.90;7.72;;;5.00;99.90;;;;;;5048334;28;20029;-77
2021/12/12 00:33:25;;;;;;;22.92;8.02;;;5.00;99.90;;;;;;5041914;28;20021;-77
2021/12/12 00:35:51;;;;;;;25.52;8.45;;;5.00;99.90;;;;;;5042837;28;20017;-77
2021/12/12 00:38:25;;;;;;;23.48;8.13;;;5.00;99.90;;;;;;5045270;28;20179;-77
2021/12/12 00:40:55;;;;;;;24.75;7.68;;;5.10;99.90;;;;;;5043789;28;20537;-77
2021/12/12 00:43:28;;;;;;;22.05;7.55;;;5.10;99.90;;;;;;5041130;28;20048;-76
2021/12/12 00:45:55;;;;;;;21.27;6.85;;;5.10;99.90;;;;;;5049912;28;20473;-77
2021/12/12 00:48:23;;;;;;;18.33;7.10;;;5.10;99.90;;;;;;5049146;28;20542;-77
2021/12/12 00:50:49;;;;;;;20.90;7.22;;;5.10;99.90;;;;;;5048687;28;20383;-77
2021/12/12 00:53:15;;;;;;;21.05;6.82;;;5.10;99.90;;;;;;5044244;28;20452;-76
2021/12/12 00:55:44;;;;;;;15.73;6.18;;;5.10;99.90;;;;;;5048695;28;20044;-77
2021/12/12 00:58:14;;;;;;;20.50;6.65;;;5.10;99.90;;;;;;5050227;28;20064;-77
2021/12/12 01:00:54;;;;;;;17.80;7.28;;;5.10;99.90;;;;;;5045918;28;20053;-77
2021/12/12 01:03:26;;;;;;;17.98;7.53;;;5.10;99.90;;;;;;5048163;28;20032;-76
2021/12/12 01:05:53;;;;;;;19.83;7.50;;;5.10;99.90;;;;;;5047227;28;20033;-76
2021/12/12 01:08:19;;;;;;;22.92;6.43;;;5.00;99.90;;;;;;5048215;28;20029;-76
2021/12/12 01:10:53;;;;;;;22.77;7.30;;;5.00;99.90;;;;;;5047023;28;20357;-76
2021/12/12 01:13:19;;;;;;;17.25;5.95;;;5.00;99.90;;;;;;5036811;28;20022;-76
2021/12/12 01:15:51;;;;;;;18.95;6.60;;;5.00;99.90;;;;;;5052266;28;20033;-76
2021/12/12 01:18:23;;;;;;;16.92;7.00;;;5.10;99.90;;;;;;5049903;28;20028;-76
2021/12/12 01:20:58;;;;;;;20.00;6.65;;;5.10;99.90;;;;;;5046554;28;20138;-76
2021/12/12 01:23:34;;;;;;;27.17;7.75;;;5.10;99.90;;;;;;5051992;28;20368;-75
2021/12/12 01:26:03;;;;;;;27.35;7.00;;;5.10;99.90;;;;;;5044838;28;20049;-75
2021/12/12 01:28:32;;;;;;;24.40;7.63;;;5.10;99.90;;;;;;5051424;28;20033;-75
2021/12/12 01:31:01;;;;;;;18.98;5.68;;;5.10;99.90;;;;;;5052171;28;20029;-75
2021/12/12 01:33:35;;;;;;;15.95;5.43;;;5.10;99.90;;;;;;5046190;28;20028;-75
2021/12/12 01:36:08;;;;;;;23.00;6.50;;;5.20;99.90;;;;;;5044527;28;20026;-75
2021/12/12 01:38:56;;;;;;;19.55;6.35;;;5.10;99.90;;;;;;5047115;28;20028;-75
2021/12/12 01:41:46;;;;;;;25.40;6.38;;;5.10;99.90;;;;;;5051858;28;20386;-75
2021/12/12 01:44:21;;;;;;;20.48;6.50;;;5.10;99.90;;;;;;5036999;28;20033;-75
2021/12/12 01:47:05;;;;;;;23.08;6.00;;;5.10;99.90;;;;;;5051731;28;20029;-75
2021/12/12 01:49:34;;;;;;;18.30;5.72;;;5.20;99.90;;;;;;5039089;28;20039;-75
2021/12/12 01:52:00;;;;;;;17.90;6.25;;;5.20;99.90;;;;;;5048257;28;20510;-75
2021/12/12 01:54:41;;;;;;;14.85;5.75;;;5.20;99.90;;;;;;5036015;28;20033;-74
2021/12/12 01:57:07;;;;;;;21.90;5.47;;;5.20;99.90;;;;;;5041527;28;20021;-75
2021/12/12 01:59:36;;;;;;;18.83;5.22;;;5.20;99.90;;;;;;5047213;28;20079;-75
2021/12/12 02:02:10;;;;;;;18.27;6.25;;;5.20;99.90;;;;;;5039670;28;20509;-75
2021/12/12 02:04:40;;;;;;;17.95;6.22;;;5.20;99.90;;;;;;5045455;28;20043;-75
2021/12/12 02:07:07;;;;;;;18.95;5.72;;;5.20;99.90;;;;;;5047208;28;20021;-75
2021/12/12 02:09:34;;;;;;;16.48;5.70;;;5.20;99.90;;;;;;5049569;28;20052;-76
2021/12/12 02:12:00;;;;;;;22.98;6.47;;;5.30;99.90;;;;;;5045500;28;20029;-75
2021/12/12 02:14:29;;;;;;;20.60;6.65;;;5.20;99.90;;;;;;5048731;28;20033;-74
2021/12/12 02:17:03;;;;;;;20.20;5.82;;;5.20;99.90;;;;;;5049457;28;20029;-74
2021/12/12 02:19:42;;;;;;;22.00;6.25;;;5.20;99.90;;;;;;5051155;28;20490;-74
2021/12/12 02:22:49;;;;;;;17.88;6.55;;;5.30;99.90;;;;;;5043580;28;20100;-74
2021/12/12 02:36:05;;;;;;;18.63;5.78;;;5.20;99.90;;;;;;5052715;28;20492;-73
2021/12/12 02:38:33;;;;;;;20.27;6.18;;;5.20;99.90;;;;;;5051283;28;20032;-74
2021/12/12 02:41:08;;;;;;;20.63;6.18;;;5.30;99.90;;;;;;5048085;28;20501;-73
2021/12/12 02:43:37;;;;;;;23.23;6.97;;;5.30;99.90;;;;;;5034840;28;20041;-72
2021/12/12 02:46:04;;;;;;;21.50;6.85;;;5.30;99.90;;;;;;5035400;28;20499;-74
2021/12/12 02:48:37;;;;;;;20.13;6.43;;;5.30;99.90;;;;;;5046587;28;20056;-74
2021/12/12 02:51:08;;;;;;;19.40;6.45;;;5.20;99.90;;;;;;5049208;28;20033;-74
2021/12/12 02:53:52;;;;;;;22.25;6.45;;;5.30;99.90;;;;;;5048939;28;20456;-74
2021/12/12 02:56:25;;;;;;;32.80;6.97;;;5.30;99.90;;;;;;5051782;28;20037;-74
2021/12/12 02:58:51;;;;;;;21.77;7.35;;;5.30;99.90;;;;;;5050625;28;20029;-74
2021/12/12 03:01:31;;;;;;;20.90;7.20;;;5.30;99.90;;;;;;5045723;28;20029;-74
2021/12/12 03:03:57;;;;;;;21.48;7.13;;;5.20;99.90;;;;;;5041191;28;20454;-74
2021/12/12 03:06:29;;;;;;;23.88;7.72;;;5.30;99.90;;;;;;5040683;28;20064;-74
2021/12/12 03:09:12;;;;;;;26.00;8.43;;;5.20;99.90;;;;;;5047668;28;20029;-74
2021/12/12 03:11:38;;;;;;;30.20;7.40;;;5.20;99.90;;;;;;5050475;28;20027;-74
2021/12/12 03:14:05;;;;;;;19.30;6.80;;;5.20;99.90;;;;;;5047392;28;20037;-74
2021/12/12 03:16:31;;;;;;;22.25;7.88;;;5.20;99.90;;;;;;5043304;28;20035;-74
2021/12/12 03:18:57;;;;;;;25.23;8.30;;;5.20;99.90;;;;;;5038498;28;20025;-75
2021/12/12 03:21:31;;;;;;;31.77;8.40;;;5.30;99.90;;;;;;5050864;28;20477;-74
2021/12/12 03:24:01;;;;;;;24.27;7.38;;;5.20;99.90;;;;;;5048539;28;20080;-74
2021/12/12 03:26:30;;;;;;;26.90;7.15;;;5.20;99.90;;;;;;5042399;28;20056;-74
2021/12/12 03:28:57;;;;;;;25.63;7.50;;;5.20;99.90;;;;;;5047133;28;20088;-74
2021/12/12 03:31:37;;;;;;;23.13;8.23;;;5.20;99.90;;;;;;5046970;28;20041;-74
2021/12/12 03:34:13;;;;;;;24.25;8.93;;;5.20;99.90;;;;;;5039848;28;20128;-74
2021/12/12 03:36:39;;;;;;;28.38;8.95;;;5.20;99.90;;;;;;5040507;28;20028;-74
2021/12/12 03:39:09;;;;;;;27.17;8.82;;;5.20;99.90;;;;;;5048119;28;20022;-74
2021/12/12 03:41:35;;;;;;;24.70;9.50;;;5.20;99.90;;;;;;5049460;28;20056;-75
2021/12/12 03:44:06;;;;;;;25.30;9.48;;;5.20;99.90;;;;;;5048288;28;20518;-74
2021/12/12 03:46:33;;;;;;;29.00;9.18;;;5.20;99.90;;;;;;5043614;28;20124;-75
2021/12/12 03:48:58;;;;;;;19.60;7.80;;;5.20;99.90;;;;;;5048937;28;20450;-74
2021/12/12 03:51:28;;;;;;;23.80;8.50;;;5.20;99.90;;;;;;5038673;28;20080;-74
2021/12/12 03:53:54;;;;;;;25.20;9.65;;;5.20;99.90;;;;;;5050180;28;20036;-75
2021/12/12 03:56:20;;;;;;;28.42;9.82;;;5.30;99.90;;;;;;5051177;28;20059;-75
2021/12/12 03:58:47;;;;;;;24.27;9.75;;;5.30;99.90;;;;;;5047450;28;20479;-75
2021/12/12 04:01:19;;;;;;;36.85;10.57;;;5.30;99.90;;;;;;5048512;28;20758;-75
2021/12/12 04:03:46;;;;;;;24.63;9.65;;;5.30;99.90;;;;;;5049303;28;20036;-75
2021/12/12 04:06:14;;;;;;;31.25;10.27;;;5.30;99.90;;;;;;5038929;28;20116;-75
2021/12/12 04:08:44;;;;;;;23.73;9.45;;;5.30;99.90;;;;;;5045955;28;20437;-75
2021/12/12 04:11:21;;;;;;;25.90;9.98;;;5.40;99.90;;;;;;5049725;28;20108;-76
2021/12/12 04:13:50;;;;;;;31.42;11.32;;;5.40;99.90;;;;;;5050578;28;20116;-76
2021/12/12 04:16:17;;;;;;;29.63;10.65;;;5.40;99.90;;;;;;5049244;28;20025;-76
2021/12/12 04:18:43;;;;;;;29.67;10.38;;;5.50;99.90;;;;;;5051194;28;20056;-76
2021/12/12 04:21:09;;;;;;;23.17;10.70;;;5.50;99.90;;;;;;5040213;28;20044;-76
2021/12/12 04:23:35;;;;;;;24.02;10.77;;;5.50;99.90;;;;;;5048065;28;20040;-76
2021/12/12 04:26:17;;;;;;;28.42;10.73;;;5.50;99.90;;;;;;5050098;28;20035;-75
2021/12/12 04:28:43;;;;;;;29.67;12.60;;;5.60;99.90;;;;;;5049063;28;20035;-76
2021/12/12 04:31:10;;;;;;;23.75;11.73;;;5.60;99.90;;;;;;5035976;28;20064;-75
2021/12/12 04:33:36;;;;;;;29.15;12.32;;;5.60;99.90;;;;;;5044300;28;20505;-76
2021/12/12 04:36:03;;;;;;;30.63;13.48;;;5.60;99.90;;;;;;5048058;28;20101;-76
2021/12/12 04:38:28;;;;;;;30.65;13.30;;;5.60;99.90;;;;;;5039264;28;20128;-76
2021/12/12 04:40:54;;;;;;;30.73;14.15;;;5.70;99.90;;;;;;5045033;28;20441;-75
2021/12/12 04:43:19;;;;;;;26.83;14.18;;;5.70;99.90;;;;;;5053604;28;20455;-76
2021/12/12 04:46:05;;;;;;;32.75;14.88;;;5.70;99.90;;;;;;5050812;28;20033;-76
2021/12/12 04:51:49;;;;;;;31.63;15.75;;;5.80;99.90;;;;;;5048379;28;20051;-76
2021/12/12 04:54:24;;;;;;;23.13;15.10;;;5.80;99.90;;;;;;5051217;28;20033;-76
2021/12/12 04:57:29;;;;;;;32.17;15.35;;;5.90;99.90;;;;;;5048316;28;20028;-77
2021/12/12 05:00:09;;;;;;;26.15;15.23;;;5.90;99.90;;;;;;5048647;28;20025;-77
2021/12/12 05:02:54;;;;;;;27.48;15.02;;;5.90;99.90;;;;;;5052994;28;20107;-77
2021/12/12 05:05:34;;;;;;;25.70;14.57;;;6.00;99.90;;;;;;5047981;28;20471;-77
2021/12/12 05:08:18;;;;;;;27.13;15.48;;;6.00;99.90;;;;;;5045702;28;20025;-77
2021/12/12 05:10:52;;;;;;;30.95;15.35;;;6.00;99.90;;;;;;5047089;28;20049;-76
2021/12/12 05:13:40;;;;;;;29.73;15.70;;;6.00;99.90;;;;;;5045447;28;20060;-76
2021/12/12 05:16:28;;;;;;;29.63;15.05;;;6.10;99.90;;;;;;5035359;28;20045;-76
2021/12/12 05:19:03;;;;;;;26.73;15.30;;;6.10;99.90;;;;;;5048424;28;20037;-76
2021/12/12 05:21:32;;;;;;;24.73;13.15;;;6.10;99.90;;;;;;5042862;28;20028;-77
2021/12/12 05:24:01;;;;;;;24.15;15.05;;;6.10;99.90;;;;;;5048896;28;20033;-77
2021/12/12 05:26:32;;;;;;;22.05;12.13;;;6.20;99.90;;;;;;5043666;28;20387;-77
2021/12/12 05:29:26;;;;;;;29.63;14.02;;;6.20;99.90;;;;;;5051802;28;20076;-76
2021/12/12 05:31:54;;;;;;;27.58;14.65;;;6.20;99.90;;;;;;5044325;28;20037;-77
2021/12/12 05:34:26;;;;;;;22.77;14.10;;;6.20;99.90;;;;;;5046260;28;20082;-76
2021/12/12 05:36:53;;;;;;;24.90;14.45;;;6.20;99.90;;;;;;5049893;28;20479;-77
2021/12/12 05:39:20;;;;;;;28.02;14.40;;;6.20;99.90;;;;;;5045930;28;20017;-77
2021/12/12 05:41:47;;;;;;;22.17;13.75;;;6.20;99.90;;;;;;5048369;28;20044;-77
2021/12/12 05:44:13;;;;;;;22.20;14.20;;;6.30;99.90;;;;;;5053415;28;20031;-76
2021/12/12 05:46:39;;;;;;;23.10;14.02;;;6.30;99.90;;;;;;5045740;28;20030;-77
2021/12/12 05:49:06;;;;;;;23.15;14.27;;;6.30;99.90;;;;;;5047393;28;20432;-77
2021/12/12 05:51:33;;;;;;;24.83;14.60;;;6.30;99.90;;;;;;5050936;28;20098;-77
2021/12/12 05:53:59;;;;;;;24.08;13.73;;;6.30;99.90;;;;;;5049410;28;20182;-77
2021/12/12 05:56:28;;;;;;;28.88;13.85;;;6.30;99.90;;;;;;5044359;28;20481;-77
2021/12/12 05:58:56;;;;;;;24.65;14.18;;;6.30;99.90;;;;;;5050115;28;20116;-77
2021/12/12 06:01:22;;;;;;;25.80;14.15;;;6.30;99.90;;;;;;5046121;28;20156;-76
2021/12/12 06:03:50;;;;;;;30.25;14.70;;;6.30;99.90;;;;;;5047533;28;20032;-76
2021/12/12 06:06:20;;;;;;;27.30;13.98;;;6.30;99.90;;;;;;5051222;28;20361;-77
2021/12/12 06:08:47;;;;;;;25.52;14.05;;;6.30;99.90;;;;;;5053067;28;20032;-77
2021/12/12 06:11:15;;;;;;;23.83;14.40;;;6.30;99.90;;;;;;5049106;28;20392;-76
2021/12/12 06:13:42;;;;;;;31.67;14.60;;;6.40;99.90;;;;;;5045491;28;20021;-77
2021/12/12 06:16:08;;;;;;;23.58;13.10;;;6.40;99.90;;;;;;5049313;28;20059;-76
2021/12/12 06:18:35;;;;;;;25.25;13.38;;;6.40;99.90;;;;;;5044451;28;20022;-77
2021/12/12 06:21:03;;;;;;;21.20;12.77;;;6.40;99.90;;;;;;5049039;28;20056;-76
2021/12/12 06:23:29;;;;;;;26.73;13.85;;;6.50;99.90;;;;;;5049420;28;20061;-76
2021/12/12 06:25:56;;;;;;;26.13;13.05;;;6.50;99.90;;;;;;5044247;28;20522;-75
2021/12/12 06:28:29;;;;;;;19.65;12.40;;;6.50;99.90;;;;;;5045537;28;20047;-76
2021/12/12 06:30:55;;;;;;;23.45;13.27;;;6.50;99.90;;;;;;5050502;28;20393;-75
2021/12/12 06:33:21;;;;;;;24.10;13.65;;;6.50;99.90;;;;;;5043562;28;20043;-76
2021/12/12 06:35:47;;;;;;;31.08;13.77;;;6.60;99.90;;;;;;5046542;28;20025;-76
2021/12/12 06:38:14;;;;;;;25.08;13.70;;;6.60;99.90;;;;;;5043784;28;20025;-77
2021/12/12 06:40:42;;;;;;;22.20;13.23;;;6.60;99.90;;;;;;5041295;28;20113;-76
2021/12/12 06:43:10;;;;;;;24.45;14.48;;;6.60;99.90;;;;;;5047230;28;20088;-77
2021/12/12 06:45:36;;;;;;;22.10;13.00;;;6.60;99.90;;;;;;5049333;28;20761;-76
2021/12/12 06:48:08;;;;;;;25.65;13.63;;;6.60;99.90;;;;;;5050364;28;20391;-76
2021/12/12 06:50:35;;;;;;;26.95;12.68;;;6.70;99.90;;;;;;5047359;28;20090;-76
2021/12/12 06:53:01;;;;;;;24.77;13.90;;;6.70;99.90;;;;;;5050071;28;20091;-76
2021/12/12 06:55:28;;;;;;;24.23;14.25;;;6.70;99.90;;;;;;5046517;28;20125;-76
2021/12/12 06:57:54;;;;;;;27.42;14.23;;;6.70;99.90;;;;;;5051330;28;20032;-76
2021/12/12 07:00:24;;;;;;;37.28;13.68;;;6.80;99.90;;;;;;5032177;28;20030;-76
2021/12/12 07:02:50;;;;;;;29.77;14.75;;;6.70;99.90;;;;;;5048491;28;20501;-76
2021/12/12 07:05:24;;;;;;;28.65;14.45;;;6.80;99.90;;;;;;5046879;28;20028;-75
2021/12/12 07:07:51;;;;;;;29.90;14.80;;;6.80;99.90;;;;;;5045543;28;20033;-75
2021/12/12 07:10:20;;;;;;;26.83;14.55;;;6.70;99.90;;;;;;5051805;28;20386;-76
2021/12/12 07:12:48;;;;;;;26.27;13.85;;;6.80;99.90;;;;;;5051020;28;20033;-76
2021/12/12 07:15:16;;;;;;;23.88;14.23;;;6.80;99.90;;;;;;5048967;28;20027;-75
2021/12/12 07:17:42;;;;;;;33.70;15.98;;;6.80;99.90;;;;;;5051682;28;20350;-76
2021/12/12 07:20:11;;;;;;;29.35;15.23;;;6.80;99.90;;;;;;5050624;28;20056;-78
2021/12/12 07:22:37;;;;;;;30.13;15.00;;;6.90;99.90;;;;;;5040004;28;20502;-77
2021/12/12 07:25:05;;;;;;;31.17;14.88;;;6.90;99.90;;;;;;5045301;28;20040;-77
2021/12/12 07:27:32;;;;;;;30.80;15.73;;;7.00;99.90;;;;;;5049182;28;20025;-77
2021/12/12 07:29:58;;;;;;;31.73;16.38;;;7.00;99.90;;;;;;5052151;28;20106;-77
2021/12/12 07:32:25;;;;;;;29.75;14.63;;;7.00;99.90;;;;;;5049813;28;20033;-77
2021/12/12 07:34:51;;;;;;;35.65;17.05;;;7.00;99.90;;;;;;5049880;28;20025;-77
2021/12/12 07:37:18;;;;;;;34.42;17.08;;;7.00;99.90;;;;;;5046707;28;20029;-77
2021/12/12 07:39:45;;;;;;;30.42;15.25;;;7.10;99.90;;;;;;5049848;28;20020;-77
2021/12/12 07:42:15;;;;;;;38.50;16.75;;;7.10;99.90;;;;;;5050773;28;20466;-78
2021/12/12 07:44:41;;;;;;;36.45;16.95;;;7.10;99.90;;;;;;5049774;28;20119;-77
2021/12/12 07:47:09;;;;;;;34.88;17.58;;;7.20;99.90;;;;;;5051519;28;20128;-76
2021/12/12 07:49:38;;;;;;;39.67;17.88;;;7.20;99.90;;;;;;5051077;28;20025;-76
2021/12/12 07:52:07;;;;;;;35.85;18.58;;;7.20;99.90;;;;;;5050522;28;20044;-76
2021/12/12 07:54:34;;;;;;;40.15;19.00;;;7.20;99.90;;;;;;5048328;28;20029;-77
2021/12/12 07:57:00;;;;;;;42.88;18.98;;;7.20;99.90;;;;;;5040745;28;20111;-76
2021/12/12 07:59:26;;;;;;;45.50;19.15;;;7.20;99.90;;;;;;5037842;28;20096;-76
2021/12/12 08:01:52;;;;;;;46.80;19.58;;;7.30;99.90;;;;;;5046248;28;20096;-76
2021/12/12 08:04:22;;;;;;;46.42;20.10;;;7.30;99.90;;;;;;5040404;28;20033;-76
2021/12/12 08:06:49;;;;;;;52.53;20.60;;;7.30;99.90;;;;;;5046744;28;20030;-76
2021/12/12 08:09:15;;;;;;;47.28;20.27;;;7.40;99.90;;;;;;5049521;28;20483;-76
2021/12/12 08:11:42;;;;;;;47.50;19.30;;;7.40;99.90;;;;;;5037681;28;20092;-77
2021/12/12 08:14:12;;;;;;;48.42;21.40;;;7.40;99.90;;;;;;5035806;28;20086;-77
2021/12/12 08:16:38;;;;;;;49.50;22.60;;;7.40;99.90;;;;;;5038392;28;20063;-77
2021/12/12 08:19:05;;;;;;;45.38;21.80;;;7.40;99.90;;;;;;5035561;28;20025;-77
2021/12/12 08:21:33;;;;;;;57.83;23.52;;;7.50;99.90;;;;;;5050614;28;20025;-77
2021/12/12 08:24:04;;;;;;;51.03;21.77;;;7.50;99.90;;;;;;5044440;28;20434;-76
2021/12/12 08:26:30;;;;;;;52.50;21.73;;;7.50;99.90;;;;;;5036018;28;20033;-77
2021/12/12 08:28:56;;;;;;;51.83;22.75;;;7.50;99.90;;;;;;5044682;28;20031;-77
2021/12/12 08:31:21;;;;;;;47.88;21.35;;;7.50;99.90;;;;;;5053968;28;20475;-77
2021/12/12 08:33:47;;;;;;;61.65;23.20;;;7.60;99.90;;;;;;5050792;28;20036;-77
2021/12/12 08:36:15;;;;;;;50.63;22.83;;;7.60;99.90;;;;;;5050107;28;20032;-77
2021/12/12 08:38:41;;;;;;;52.03;23.00;;;7.60;99.90;;;;;;5046014;28;20021;-77
2021/12/12 08:41:07;;;;;;;52.53;22.65;;;7.70;99.90;;;;;;5036105;28;20041;-77
2021/12/12 08:43:33;;;;;;;58.25;24.27;;;7.70;99.90;;;;;;5037853;28;20502;-77
2021/12/12 08:46:03;;;;;;;49.88;23.30;;;7.70;99.90;;;;;;5035583;28;20388;-78
2021/12/12 08:48:31;;;;;;;58.92;23.20;;;7.70;99.90;;;;;;5039399;28;20108;-77
2021/12/12 08:51:01;;;;;;;57.42;24.92;;;7.80;99.90;;;;;;5049094;28;20021;-77
2021/12/12 08:53:27;;;;;;;55.05;22.70;;;7.80;99.90;;;;;;5048056;28;20044;-78
2021/12/12 08:55:56;;;;;;;52.38;24.48;;;7.80;99.90;;;;;;5032495;28;20503;-77
2021/12/12 08:58:30;;;;;;;57.47;24.05;;;7.80;99.90;;;;;;5044721;28;20025;-77
2021/12/12 09:01:11;;;;;;;56.08;23.80;;;7.90;99.90;;;;;;5039705;28;20608;-77
2021/12/12 09:03:55;;;;;;;56.38;24.55;;;7.90;99.90;;;;;;5037044;28;20026;-77
2021/12/12 09:06:28;;;;;;;52.05;22.73;;;7.90;99.90;;;;;;5043918;28;20036;-78
2021/12/12 09:09:08;;;;;;;56.80;23.52;;;8.00;99.90;;;;;;5049340;28;20047;-78
2021/12/12 09:11:44;;;;;;;52.33;23.52;;;8.00;99.90;;;;;;5044898;28;20471;-78
2021/12/12 09:14:36;;;;;;;56.63;25.30;;;8.00;99.90;;;;;;5050481;28;20032;-78
2021/12/12 09:17:10;;;;;;;53.50;23.05;;;8.00;99.90;;;;;;5043285;28;20430;-78
2021/12/12 09:19:45;;;;;;;52.60;23.40;;;8.00;99.90;;;;;;5042120;28;20029;-80
2021/12/12 09:22:19;;;;;;;61.33;24.45;;;8.10;99.90;;;;;;5044657;28;20072;-78
2021/12/12 09:25:01;;;;;;;54.63;24.23;;;8.10;99.90;;;;;;5047365;28;20036;-78
2021/12/12 09:27:32;;;;;;;56.75;23.30;;;8.10;99.90;;;;;;5032516;28;20025;-78
2021/12/12 09:30:19;;;;;;;60.13;25.08;;;8.10;99.90;;;;;;5053520;28;20040;-78
2021/12/12 09:32:51;;;;;;;51.85;22.63;;;8.10;99.90;;;;;;5050261;28;20114;-80
2021/12/12 09:35:24;;;;;;;56.47;23.10;;;8.20;99.90;;;;;;5034929;28;20440;-78
2021/12/12 09:38:02;;;;;;;49.33;22.83;;;8.20;99.90;;;;;;5038172;28;20028;-78
2021/12/12 09:40:53;;;;;;;48.58;22.38;;;8.30;99.90;;;;;;5050485;28;20033;-79
2021/12/12 09:43:20;;;;;;;49.88;21.45;;;8.30;99.90;;;;;;5040191;28;20029;-78
2021/12/12 09:46:28;;;;;;;51.28;23.50;;;8.30;99.90;;;;;;5051546;28;20062;-79
2021/12/12 09:52:12;;;;;;;48.00;22.33;;;8.30;99.90;;;;;;5052610;28;20091;-78
2021/12/12 09:54:50;;;;;;;48.83;21.17;;;8.30;99.90;;;;;;5034749;28;20120;-79
2021/12/12 09:57:45;;;;;;;43.33;20.80;;;8.40;99.90;;;;;;5041708;28;20388;-79
2021/12/12 10:00:26;;;;;;;45.00;21.35;;;8.40;99.90;;;;;;5035030;28;20021;-80
2021/12/12 10:03:06;;;;;;;39.28;19.67;;;8.40;99.90;;;;;;5052815;28;20386;-78
2021/12/12 10:05:56;;;;;;;49.90;21.80;;;8.40;99.90;;;;;;5042860;28;20032;-78
2021/12/12 10:08:40;;;;;;;49.63;21.08;;;8.40;99.90;;;;;;5048285;28;20661;-79
2021/12/12 10:11:08;;;;;;;47.22;20.88;;;8.50;99.90;;;;;;5050593;28;20033;-78
2021/12/12 10:13:37;;;;;;;50.10;21.48;;;8.50;99.90;;;;;;5053462;28;20108;-78
2021/12/12 10:16:22;;;;;;;37.17;18.90;;;8.50;99.90;;;;;;5044722;28;20029;-78
2021/12/12 10:18:48;;;;;;;42.25;19.00;;;8.60;99.90;;;;;;5052781;28;20422;-79
2021/12/12 10:21:40;;;;;;;40.70;18.98;;;8.60;99.90;;;;;;5038179;28;20025;-79
2021/12/12 10:24:25;;;;;;;45.53;19.83;;;8.60;99.90;;;;;;5047018;28;20029;-79
2021/12/12 10:27:12;;;;;;;42.45;20.20;;;8.60;99.90;;;;;;5040713;28;20029;-78
2021/12/12 10:29:53;;;;;;;38.25;19.38;;;8.60;99.90;;;;;;5048288;28;20074;-79
2021/12/12 10:32:23;;;;;;;41.78;18.50;;;8.60;99.90;;;;;;5042402;28;20095;-79
2021/12/12 10:34:58;;;;;;;43.92;19.23;;;8.70;99.90;;;;;;5052726;28;20028;-79
2021/12/12 10:37:33;;;;;;;42.80;19.05;;;8.70;99.90;;;;;;5043289;28;20036;-79
2021/12/12 10:40:01;;;;;;;42.38;19.77;;;8.70;99.90;;;;;;5050886;28;20021;-79
2021/12/12 10:42:30;;;;;;;38.50;19.25;;;8.80;99.90;;;;;;5049289;28;20467;-79
2021/12/12 10:45:04;;;;;;;43.42;20.83;;;8.80;99.90;;;;;;5048546;28;20021;-80
2021/12/12 10:47:42;;;;;;;47.60;20.80;;;8.80;99.90;;;;;;5051968;28;20017;-79
2021/12/12 10:50:44;;;;;;;49.45;20.55;;;8.80;99.90;;;;;;5052759;28;20055;-79
2021/12/12 10:53:16;;;;;;;39.13;18.38;;;8.80;99.90;;;;;;5047299;28;20514;-78
2021/12/12 10:55:49;;;;;;;42.33;19.05;;;8.80;99.90;;;;;;5035761;28;20108;-79
2021/12/12 10:58:22;;;;;;;44.75;19.73;;;8.80;99.90;;;;;;5045103;28;20025;-80
2021/12/12 11:00:54;;;;;;;43.00;19.75;;;8.80;99.90;;;;;;5046506;28;20119;-79
2021/12/12 11:03:27;;;;;;;37.97;19.53;;;8.80;99.90;;;;;;5041616;28;20047;-79
2021/12/12 11:06:16;;;;;;;33.92;18.63;;;8.90;99.90;;;;;;5042622;28;20026;-80
2021/12/12 11:08:56;;;;;;;41.08;19.35;;;8.90;99.90;;;;;;5044754;28;20306;-77
2021/12/12 11:11:27;;;;;;;32.20;16.88;;;8.90;99.90;;;;;;5048218;28;20025;-78
2021/12/12 11:14:16;;;;;;;32.65;17.02;;;8.90;99.90;;;;;;5053542;28;20120;-77
2021/12/12 11:16:52;;;;;;;33.90;17.20;;;9.00;99.90;;;;;;5049163;28;20057;-76
2021/12/12 11:19:34;;;;;;;28.10;15.73;;;9.00;99.90;;;;;;5050964;28;20063;-77
2021/12/12 11:22:38;;;;;;;28.98;15.77;;;9.10;99.90;;;;;;5051524;28;20032;-77
2021/12/12 11:25:25;;;;;;;26.30;15.27;;;9.10;99.90;;;;;;5042081;28;20026;-76
2021/12/12 11:28:09;;;;;;;26.80;14.75;;;9.10;99.90;;;;;;5041042;28;20495;-76
2021/12/12 11:30:46;;;;;;;32.30;15.10;;;9.10;99.90;;;;;;5042229;28;20060;-76
2021/12/12 11:33:15;;;;;;;25.38;14.50;;;9.10;99.90;;;;;;5051900;28;20033;-76
2021/12/12 11:35:43;;;;;;;30.75;15.48;;;9.10;99.90;;;;;;5048283;28;20419;-76
2021/12/12 11:38:17;;;;;;;25.10;15.15;;;9.00;99.90;;;;;;5050460;28;20021;-76
2021/12/12 11:40:59;;;;;;;30.77;15.32;;;9.10;99.90;;;;;;5035013;28;20029;-77
2021/12/12 11:43:48;;;;;;;34.85;15.93;;;9.10;99.90;;;;;;5045397;28;20495;-76
2021/12/12 11:46:38;;;;;;;30.45;15.85;;;9.10;99.90;;;;;;5043736;28;20123;-78
2021/12/12 11:49:19;;;;;;;29.73;16.13;;;9.10;99.90;;;;;;5044146;28;20049;-78
2021/12/12 11:52:08;;;;;;;31.83;15.77;;;9.10;99.90;;;;;;5037797;28;20044;-77
2021/12/12 11:54:42;;;;;;;29.40;15.93;;;9.10;99.90;;;;;;5039318;28;20036;-78
2021/12/12 11:57:15;;;;;;;33.47;17.50;;;9.20;99.90;;;;;;5033924;28;20028;-79
2021/12/12 11:59:50;;;;;;;35.67;17.85;;;9.20;99.90;;;;;;5032658;28;20107;-79
2021/12/12 12:02:33;;;;;;;36.58;16.52;;;9.20;99.90;;;;;;5042012;28;20031;-79
2021/12/12 12:05:01;;;;;;;36.55;17.45;;;9.30;99.90;;;;;;5046322;28;20480;-78
2021/12/12 12:08:24;;;;;;;38.75;18.45;;;9.30;99.90;;;;;;5042483;28;20024;-79
2021/12/12 12:11:26;;;;;;;31.67;18.27;;;9.40;99.90;;;;;;5042320;28;20044;-78
2021/12/12 12:14:16;;;;;;;38.72;18.58;;;9.40;99.90;;;;;;5027268;28;20098;-79
2021/12/12 12:17:04;;;;;;;39.38;18.35;;;9.50;99.90;;;;;;5041520;28;20056;-80
2021/12/12 12:20:08;;;;;;;32.28;17.67;;;9.50;99.90;;;;;;5040933;28;20021;-79
2021/12/12 12:22:42;;;;;;;36.08;18.48;;;9.50;99.90;;;;;;5041778;28;20518;-78
2021/12/12 12:26:50;;;;;;;30.55;17.30;;;9.60;99.90;;;;;;5043812;28;20028;-78
2021/12/12 12:28:38;;;;;;;31.30;17.05;;;9.60;99.90;;;;;;5043707;28;20106;-79
2021/12/12 12:31:08;;;;;;;36.05;18.42;;;9.60;99.90;;;;;;5044394;28;20155;-79
2021/12/12 12:34:01;;;;;;;32.60;18.13;;;9.60;99.90;;;;;;5043155;28;20080;-78
2021/12/12 12:36:45;;;;;;;33.97;17.15;;;9.60;99.90;;;;;;5044428;28;20025;-79
2021/12/12 12:39:45;;;;;;;31.95;16.83;;;9.60;99.90;;;;;;5044521;28;20024;-79
2021/12/12 12:42:39;;;;;;;33.25;18.88;;;9.60;99.90;;;;;;5044034;28;20030;-80
2021/12/12 12:45:42;;;;;;;38.75;18.90;;;9.60;99.90;;;;;;5047905;28;20064;-79
2021/12/12 12:48:42;;;;;;;34.17;18.70;;;9.60;99.90;;;;;;5037071;28;20033;-78
2021/12/12 12:51:31;;;;;;;36.35;19.15;;;9.50;99.90;;;;;;5066047;28;20040;-79
2021/12/12 12:54:27;;;;;;;36.45;18.60;;;9.50;99.90;;;;;;5035475;28;20472;-79
2021/12/12 12:57:23;;;;;;;34.13;17.95;;;9.60;99.90;;;;;;5033763;28;20036;-78
2021/12/12 13:00:15;;;;;;;32.55;18.45;;;9.60;99.90;;;;;;5044288;28;20370;-78
2021/12/12 13:03:05;;;;;;;34.80;18.23;;;9.60;99.90;;;;;;5043391;28;20028;-78
2021/12/12 13:06:01;;;;;;;28.02;17.48;;;9.60;99.90;;;;;;5050658;28;20025;-78
2021/12/12 13:09:04;;;;;;;29.98;17.15;;;9.60;99.90;;;;;;5052845;28;20032;-78
2021/12/12 13:11:43;;;;;;;33.00;17.48;;;9.60;99.90;;;;;;5044109;28;20470;-78
2021/12/12 13:14:21;;;;;;;34.13;18.38;;;9.60;99.90;;;;;;5051233;28;20044;-77
2021/12/12 13:16:59;;;;;;;29.35;17.85;;;9.60;99.90;;;;;;5051332;28;20021;-78
2021/12/12 13:19:37;;;;;;;29.38;17.65;;;9.60;99.90;;;;;;5053469;28;20021;-78
2021/12/12 13:22:15;;;;;;;27.95;16.52;;;9.60;99.90;;;;;;5047136;28;20033;-78
2021/12/12 13:24:53;;;;;;;28.58;17.25;;;9.60;99.90;;;;;;5050713;28;20022;-79
2021/12/12 13:30:59;;;;;;;32.33;17.77;;;9.70;99.90;;;;;;5040081;28;20544;-78
2021/12/12 13:33:56;;;;;;;30.65;17.65;;;9.70;99.90;;;;;;5052929;28;20102;-78
2021/12/12 13:36:59;;;;;;;29.20;17.63;;;9.70;99.90;;;;;;5045847;28;20029;-78